sensor_id;sensor_type;location;lat;lon;timestamp;P1;durP1;ratioP1;P2;durP2;ratioP2
61336;SDS011;47212;41.326;2.104;2024-01-27T00:04:49;9.57;;;6.57;;
61336;SDS011;47212;41.326;2.104;2024-01-27T00:10:05;12.38;;;7.28;;
61336;SDS011;47212;41.326;2.104;2024-01-27T00:15:13;19.00;;;10.60;;
61336;SDS011;47212;41.326;2.104;2024-01-27T00:20:22;14.60;;;8.65;;
61336;SDS011;47212;41.326;2.104;2024-01-27T00:25:32;13.55;;;7.32;;
61336;SDS011;47212;41.326;2.104;2024-01-27T00:30:41;8.80;;;6.57;;
61336;SDS011;47212;41.326;2.104;2024-01-27T00:35:49;9.27;;;7.00;;
61336;SDS011;47212;41.326;2.104;2024-01-27T00:41:01;11.77;;;7.25;;
61336;SDS011;47212;41.326;2.104;2024-01-27T00:46:20;9.98;;;7.03;;
61336;SDS011;47212;41.326;2.104;2024-01-27T00:51:55;9.32;;;6.68;;
61336;SDS011;47212;41.326;2.104;2024-01-27T00:57:31;10.27;;;6.88;;
61336;SDS011;47212;41.326;2.104;2024-01-27T01:03:09;15.48;;;6.38;;
61336;SDS011;47212;41.326;2.104;2024-01-27T01:08:18;12.43;;;6.82;;
61336;SDS011;47212;41.326;2.104;2024-01-27T01:13:53;11.57;;;6.72;;
61336;SDS011;47212;41.326;2.104;2024-01-27T01:18:56;12.80;;;7.28;;
61336;SDS011;47212;41.326;2.104;2024-01-27T01:24:09;10.32;;;6.63;;
61336;SDS011;47212;41.326;2.104;2024-01-27T01:29:19;11.20;;;8.00;;
61336;SDS011;47212;41.326;2.104;2024-01-27T01:34:24;12.60;;;7.18;;
61336;SDS011;47212;41.326;2.104;2024-01-27T01:39:30;12.23;;;7.22;;
61336;SDS011;47212;41.326;2.104;2024-01-27T01:44:46;10.77;;;7.05;;
61336;SDS011;47212;41.326;2.104;2024-01-27T01:49:54;14.55;;;8.23;;
61336;SDS011;47212;41.326;2.104;2024-01-27T01:55:10;12.30;;;7.93;;
61336;SDS011;47212;41.326;2.104;2024-01-27T02:05:20;9.63;;;6.45;;
61336;SDS011;47212;41.326;2.104;2024-01-27T02:10:33;10.68;;;6.30;;
61336;SDS011;47212;41.326;2.104;2024-01-27T02:15:53;15.38;;;7.15;;
61336;SDS011;47212;41.326;2.104;2024-01-27T02:20:58;9.63;;;6.47;;
61336;SDS011;47212;41.326;2.104;2024-01-27T02:26:12;9.52;;;5.97;;
61336;SDS011;47212;41.326;2.104;2024-01-27T02:37:13;9.10;;;6.20;;
61336;SDS011;47212;41.326;2.104;2024-01-27T02:42:26;12.35;;;6.28;;
61336;SDS011;47212;41.326;2.104;2024-01-27T02:47:36;9.02;;;6.20;;
61336;SDS011;47212;41.326;2.104;2024-01-27T02:52:59;10.02;;;6.18;;
61336;SDS011;47212;41.326;2.104;2024-01-27T02:58:13;10.30;;;6.15;;
61336;SDS011;47212;41.326;2.104;2024-01-27T03:03:24;9.70;;;6.22;;
61336;SDS011;47212;41.326;2.104;2024-01-27T03:08:37;14.52;;;6.35;;
61336;SDS011;47212;41.326;2.104;2024-01-27T03:13:43;8.57;;;5.85;;
61336;SDS011;47212;41.326;2.104;2024-01-27T03:18:48;7.95;;;5.57;;
61336;SDS011;47212;41.326;2.104;2024-01-27T03:23:59;10.65;;;6.18;;
61336;SDS011;47212;41.326;2.104;2024-01-27T03:29:09;10.35;;;6.40;;
61336;SDS011;47212;41.326;2.104;2024-01-27T03:34:26;10.82;;;5.70;;
61336;SDS011;47212;41.326;2.104;2024-01-27T03:40:10;7.47;;;5.05;;
61336;SDS011;47212;41.326;2.104;2024-01-27T03:45:40;9.27;;;5.82;;
61336;SDS011;47212;41.326;2.104;2024-01-27T03:50:55;8.15;;;5.65;;
61336;SDS011;47212;41.326;2.104;2024-01-27T03:56:03;10.50;;;5.75;;
61336;SDS011;47212;41.326;2.104;2024-01-27T04:01:16;8.10;;;5.00;;
61336;SDS011;47212;41.326;2.104;2024-01-27T04:06:35;7.93;;;5.55;;
61336;SDS011;47212;41.326;2.104;2024-01-27T04:11:45;8.48;;;6.05;;
61336;SDS011;47212;41.326;2.104;2024-01-27T04:17:01;8.40;;;5.32;;
61336;SDS011;47212;41.326;2.104;2024-01-27T04:22:09;8.02;;;5.18;;
61336;SDS011;47212;41.326;2.104;2024-01-27T04:27:18;11.20;;;6.40;;
61336;SDS011;47212;41.326;2.104;2024-01-27T04:32:25;10.45;;;6.20;;
61336;SDS011;47212;41.326;2.104;2024-01-27T04:37:36;6.63;;;4.70;;
61336;SDS011;47212;41.326;2.104;2024-01-27T04:42:56;7.65;;;4.75;;
61336;SDS011;47212;41.326;2.104;2024-01-27T04:48:03;8.68;;;5.10;;
61336;SDS011;47212;41.326;2.104;2024-01-27T04:53:28;9.13;;;4.87;;
61336;SDS011;47212;41.326;2.104;2024-01-27T04:58:42;7.95;;;5.25;;
61336;SDS011;47212;41.326;2.104;2024-01-27T05:04:05;7.00;;;4.82;;
61336;SDS011;47212;41.326;2.104;2024-01-27T05:09:11;7.43;;;5.50;;
61336;SDS011;47212;41.326;2.104;2024-01-27T05:14:16;9.32;;;5.13;;
61336;SDS011;47212;41.326;2.104;2024-01-27T05:19:19;8.43;;;5.53;;
61336;SDS011;47212;41.326;2.104;2024-01-27T05:24:23;9.25;;;5.18;;
61336;SDS011;47212;41.326;2.104;2024-01-27T05:29:28;10.18;;;6.00;;
61336;SDS011;47212;41.326;2.104;2024-01-27T05:34:30;11.32;;;6.00;;
61336;SDS011;47212;41.326;2.104;2024-01-27T05:49:41;9.63;;;4.65;;
61336;SDS011;47212;41.326;2.104;2024-01-27T05:54:43;11.18;;;5.18;;
61336;SDS011;47212;41.326;2.104;2024-01-27T05:59:45;8.13;;;4.72;;
61336;SDS011;47212;41.326;2.104;2024-01-27T06:04:47;6.18;;;4.53;;
61336;SDS011;47212;41.326;2.104;2024-01-27T06:09:50;8.15;;;4.75;;
61336;SDS011;47212;41.326;2.104;2024-01-27T06:15:13;6.65;;;5.03;;
61336;SDS011;47212;41.326;2.104;2024-01-27T06:20:25;6.57;;;4.78;;
61336;SDS011;47212;41.326;2.104;2024-01-27T06:25:27;11.13;;;5.93;;
61336;SDS011;47212;41.326;2.104;2024-01-27T06:30:30;8.23;;;5.22;;
61336;SDS011;47212;41.326;2.104;2024-01-27T06:35:35;6.43;;;4.68;;
61336;SDS011;47212;41.326;2.104;2024-01-27T06:40:41;8.13;;;5.20;;
61336;SDS011;47212;41.326;2.104;2024-01-27T06:45:44;8.57;;;5.65;;
61336;SDS011;47212;41.326;2.104;2024-01-27T06:50:46;8.02;;;4.75;;
61336;SDS011;47212;41.326;2.104;2024-01-27T06:55:48;7.68;;;5.22;;
61336;SDS011;47212;41.326;2.104;2024-01-27T07:00:56;8.65;;;5.13;;
61336;SDS011;47212;41.326;2.104;2024-01-27T07:06:02;7.75;;;5.13;;
61336;SDS011;47212;41.326;2.104;2024-01-27T07:11:05;8.13;;;4.55;;
61336;SDS011;47212;41.326;2.104;2024-01-27T07:16:07;7.63;;;4.53;;
61336;SDS011;47212;41.326;2.104;2024-01-27T07:21:14;7.13;;;4.60;;
61336;SDS011;47212;41.326;2.104;2024-01-27T07:36:29;6.35;;;4.03;;
61336;SDS011;47212;41.326;2.104;2024-01-27T07:41:34;7.78;;;4.40;;
61336;SDS011;47212;41.326;2.104;2024-01-27T07:46:37;10.85;;;5.15;;
61336;SDS011;47212;41.326;2.104;2024-01-27T07:51:40;8.18;;;4.65;;
61336;SDS011;47212;41.326;2.104;2024-01-27T07:56:42;7.25;;;4.05;;
61336;SDS011;47212;41.326;2.104;2024-01-27T08:01:44;6.75;;;4.07;;
61336;SDS011;47212;41.326;2.104;2024-01-27T08:06:47;7.47;;;4.03;;
61336;SDS011;47212;41.326;2.104;2024-01-27T08:11:51;8.65;;;4.78;;
61336;SDS011;47212;41.326;2.104;2024-01-27T08:17:05;10.45;;;6.47;;
61336;SDS011;47212;41.326;2.104;2024-01-27T08:22:07;24.52;;;18.35;;
61336;SDS011;47212;41.326;2.104;2024-01-27T08:27:11;10.10;;;6.57;;
61336;SDS011;47212;41.326;2.104;2024-01-27T08:37:19;10.18;;;5.03;;
61336;SDS011;47212;41.326;2.104;2024-01-27T08:42:25;11.63;;;6.55;;
61336;SDS011;47212;41.326;2.104;2024-01-27T08:47:28;7.95;;;4.85;;
61336;SDS011;47212;41.326;2.104;2024-01-27T08:52:31;7.90;;;4.88;;
61336;SDS011;47212;41.326;2.104;2024-01-27T08:57:36;8.27;;;4.97;;
61336;SDS011;47212;41.326;2.104;2024-01-27T09:02:41;12.15;;;5.30;;
61336;SDS011;47212;41.326;2.104;2024-01-27T09:07:47;10.57;;;6.43;;
61336;SDS011;47212;41.326;2.104;2024-01-27T09:17:51;9.82;;;5.63;;
61336;SDS011;47212;41.326;2.104;2024-01-27T09:22:54;8.13;;;5.72;;
61336;SDS011;47212;41.326;2.104;2024-01-27T09:27:56;7.63;;;5.50;;
61336;SDS011;47212;41.326;2.104;2024-01-27T09:33:02;11.00;;;5.68;;
61336;SDS011;47212;41.326;2.104;2024-01-27T09:38:05;8.45;;;5.07;;
61336;SDS011;47212;41.326;2.104;2024-01-27T09:43:13;9.75;;;5.32;;
61336;SDS011;47212;41.326;2.104;2024-01-27T09:48:19;9.52;;;5.43;;
61336;SDS011;47212;41.326;2.104;2024-01-27T09:53:22;10.80;;;5.28;;
61336;SDS011;47212;41.326;2.104;2024-01-27T09:58:25;12.65;;;5.53;;
61336;SDS011;47212;41.326;2.104;2024-01-27T10:03:29;8.90;;;5.18;;
61336;SDS011;47212;41.326;2.104;2024-01-27T10:08:32;9.43;;;5.43;;
61336;SDS011;47212;41.326;2.104;2024-01-27T10:13:35;10.82;;;5.68;;
61336;SDS011;47212;41.326;2.104;2024-01-27T10:18:37;11.98;;;5.50;;
61336;SDS011;47212;41.326;2.104;2024-01-27T10:23:42;8.07;;;4.53;;
61336;SDS011;47212;41.326;2.104;2024-01-27T10:28:55;10.27;;;5.35;;
61336;SDS011;47212;41.326;2.104;2024-01-27T10:33:58;11.20;;;5.60;;
61336;SDS011;47212;41.326;2.104;2024-01-27T10:39:13;16.13;;;7.50;;
61336;SDS011;47212;41.326;2.104;2024-01-27T10:44:26;9.23;;;6.18;;
61336;SDS011;47212;41.326;2.104;2024-01-27T10:49:31;15.68;;;8.27;;
61336;SDS011;47212;41.326;2.104;2024-01-27T10:54:36;16.65;;;9.90;;
61336;SDS011;47212;41.326;2.104;2024-01-27T10:59:41;15.43;;;11.45;;
61336;SDS011;47212;41.326;2.104;2024-01-27T11:04:45;21.50;;;15.95;;
61336;SDS011;47212;41.326;2.104;2024-01-27T11:09:51;18.70;;;13.55;;
61336;SDS011;47212;41.326;2.104;2024-01-27T11:14:54;20.88;;;14.13;;
61336;SDS011;47212;41.326;2.104;2024-01-27T11:20:00;20.67;;;14.13;;
61336;SDS011;47212;41.326;2.104;2024-01-27T11:35:29;11.57;;;8.40;;
61336;SDS011;47212;41.326;2.104;2024-01-27T11:40:32;14.57;;;8.50;;
61336;SDS011;47212;41.326;2.104;2024-01-27T11:45:34;11.20;;;7.50;;
61336;SDS011;47212;41.326;2.104;2024-01-27T11:50:37;14.00;;;6.03;;
61336;SDS011;47212;41.326;2.104;2024-01-27T11:55:39;10.48;;;6.63;;
61336;SDS011;47212;41.326;2.104;2024-01-27T12:00:45;11.30;;;6.40;;
61336;SDS011;47212;41.326;2.104;2024-01-27T12:05:48;14.27;;;7.15;;
61336;SDS011;47212;41.326;2.104;2024-01-27T12:10:51;10.77;;;6.90;;
61336;SDS011;47212;41.326;2.104;2024-01-27T12:15:53;8.55;;;5.63;;
61336;SDS011;47212;41.326;2.104;2024-01-27T12:21:00;18.25;;;7.32;;
61336;SDS011;47212;41.326;2.104;2024-01-27T12:26:02;12.88;;;6.40;;
61336;SDS011;47212;41.326;2.104;2024-01-27T12:31:08;11.88;;;6.20;;
61336;SDS011;47212;41.326;2.104;2024-01-27T12:36:14;17.20;;;7.80;;
61336;SDS011;47212;41.326;2.104;2024-01-27T12:41:17;9.82;;;5.95;;
61336;SDS011;47212;41.326;2.104;2024-01-27T12:46:25;10.07;;;6.63;;
61336;SDS011;47212;41.326;2.104;2024-01-27T12:51:27;13.82;;;8.48;;
61336;SDS011;47212;41.326;2.104;2024-01-27T12:56:35;12.95;;;10.00;;
61336;SDS011;47212;41.326;2.104;2024-01-27T13:01:37;18.03;;;11.13;;
61336;SDS011;47212;41.326;2.104;2024-01-27T13:06:41;16.63;;;11.27;;
61336;SDS011;47212;41.326;2.104;2024-01-27T13:11:46;16.95;;;10.43;;
61336;SDS011;47212;41.326;2.104;2024-01-27T13:16:51;13.93;;;10.63;;
61336;SDS011;47212;41.326;2.104;2024-01-27T13:21:56;12.70;;;9.77;;
61336;SDS011;47212;41.326;2.104;2024-01-27T13:27:00;17.60;;;8.90;;
61336;SDS011;47212;41.326;2.104;2024-01-27T13:32:10;14.75;;;8.82;;
61336;SDS011;47212;41.326;2.104;2024-01-27T13:37:19;16.20;;;9.45;;
61336;SDS011;47212;41.326;2.104;2024-01-27T13:42:22;16.75;;;11.35;;
61336;SDS011;47212;41.326;2.104;2024-01-27T13:47:24;14.55;;;10.82;;
61336;SDS011;47212;41.326;2.104;2024-01-27T13:52:30;14.10;;;9.82;;
61336;SDS011;47212;41.326;2.104;2024-01-27T13:57:34;14.40;;;9.45;;
61336;SDS011;47212;41.326;2.104;2024-01-27T14:02:37;18.02;;;11.55;;
61336;SDS011;47212;41.326;2.104;2024-01-27T14:07:40;19.25;;;14.18;;
61336;SDS011;47212;41.326;2.104;2024-01-27T14:12:42;16.20;;;9.30;;
61336;SDS011;47212;41.326;2.104;2024-01-27T14:17:44;16.52;;;9.93;;
61336;SDS011;47212;41.326;2.104;2024-01-27T14:22:47;17.48;;;9.20;;
61336;SDS011;47212;41.326;2.104;2024-01-27T14:27:49;13.75;;;9.68;;
61336;SDS011;47212;41.326;2.104;2024-01-27T14:32:51;12.68;;;9.43;;
61336;SDS011;47212;41.326;2.104;2024-01-27T14:37:53;16.98;;;9.73;;
61336;SDS011;47212;41.326;2.104;2024-01-27T14:42:58;18.92;;;13.02;;
61336;SDS011;47212;41.326;2.104;2024-01-27T14:48:00;14.45;;;11.35;;
61336;SDS011;47212;41.326;2.104;2024-01-27T14:53:05;13.85;;;11.00;;
61336;SDS011;47212;41.326;2.104;2024-01-27T14:58:07;15.73;;;11.82;;
61336;SDS011;47212;41.326;2.104;2024-01-27T15:03:10;17.05;;;11.60;;
61336;SDS011;47212;41.326;2.104;2024-01-27T15:08:14;17.83;;;12.93;;
61336;SDS011;47212;41.326;2.104;2024-01-27T15:13:17;18.65;;;14.00;;
61336;SDS011;47212;41.326;2.104;2024-01-27T15:18:28;15.75;;;11.48;;
61336;SDS011;47212;41.326;2.104;2024-01-27T15:23:31;16.88;;;11.55;;
61336;SDS011;47212;41.326;2.104;2024-01-27T15:28:33;17.13;;;13.63;;
61336;SDS011;47212;41.326;2.104;2024-01-27T15:33:36;15.43;;;11.73;;
61336;SDS011;47212;41.326;2.104;2024-01-27T15:38:39;17.77;;;13.75;;
61336;SDS011;47212;41.326;2.104;2024-01-27T15:43:41;21.70;;;15.85;;
61336;SDS011;47212;41.326;2.104;2024-01-27T15:48:49;19.70;;;15.15;;
61336;SDS011;47212;41.326;2.104;2024-01-27T15:53:51;20.60;;;14.80;;
61336;SDS011;47212;41.326;2.104;2024-01-27T15:58:54;17.42;;;14.20;;
61336;SDS011;47212;41.326;2.104;2024-01-27T16:03:56;29.60;;;21.77;;
61336;SDS011;47212;41.326;2.104;2024-01-27T16:09:07;22.33;;;17.93;;
61336;SDS011;47212;41.326;2.104;2024-01-27T16:14:10;24.60;;;17.48;;
61336;SDS011;47212;41.326;2.104;2024-01-27T16:19:12;22.00;;;17.17;;
61336;SDS011;47212;41.326;2.104;2024-01-27T16:24:15;24.70;;;17.48;;
61336;SDS011;47212;41.326;2.104;2024-01-27T16:29:17;17.75;;;14.23;;
61336;SDS011;47212;41.326;2.104;2024-01-27T16:34:27;19.65;;;14.85;;
61336;SDS011;47212;41.326;2.104;2024-01-27T16:39:32;20.98;;;15.70;;
61336;SDS011;47212;41.326;2.104;2024-01-27T16:44:35;20.83;;;16.38;;
61336;SDS011;47212;41.326;2.104;2024-01-27T16:49:38;21.60;;;15.40;;
61336;SDS011;47212;41.326;2.104;2024-01-27T16:54:40;18.05;;;13.73;;
61336;SDS011;47212;41.326;2.104;2024-01-27T16:59:42;17.08;;;13.18;;
61336;SDS011;47212;41.326;2.104;2024-01-27T17:04:46;18.65;;;14.02;;
61336;SDS011;47212;41.326;2.104;2024-01-27T17:09:51;16.73;;;12.13;;
61336;SDS011;47212;41.326;2.104;2024-01-27T17:14:53;16.88;;;12.10;;
61336;SDS011;47212;41.326;2.104;2024-01-27T17:19:56;16.45;;;11.93;;
61336;SDS011;47212;41.326;2.104;2024-01-27T17:25:01;16.80;;;12.48;;
61336;SDS011;47212;41.326;2.104;2024-01-27T17:30:04;17.55;;;12.95;;
61336;SDS011;47212;41.326;2.104;2024-01-27T17:35:11;18.45;;;13.98;;
61336;SDS011;47212;41.326;2.104;2024-01-27T17:40:15;15.30;;;13.02;;
61336;SDS011;47212;41.326;2.104;2024-01-27T17:45:20;16.92;;;12.40;;
61336;SDS011;47212;41.326;2.104;2024-01-27T17:50:22;14.63;;;12.52;;
61336;SDS011;47212;41.326;2.104;2024-01-27T17:55:27;17.70;;;13.45;;
61336;SDS011;47212;41.326;2.104;2024-01-27T18:00:29;18.73;;;14.15;;
61336;SDS011;47212;41.326;2.104;2024-01-27T18:05:31;16.30;;;13.43;;
61336;SDS011;47212;41.326;2.104;2024-01-27T18:10:33;18.55;;;14.40;;
61336;SDS011;47212;41.326;2.104;2024-01-27T18:15:38;18.13;;;14.70;;
61336;SDS011;47212;41.326;2.104;2024-01-27T18:20:42;18.25;;;14.63;;
61336;SDS011;47212;41.326;2.104;2024-01-27T18:25:44;17.25;;;14.10;;
61336;SDS011;47212;41.326;2.104;2024-01-27T18:30:49;20.55;;;15.38;;
61336;SDS011;47212;41.326;2.104;2024-01-27T18:35:51;19.15;;;15.20;;
61336;SDS011;47212;41.326;2.104;2024-01-27T18:40:53;22.60;;;16.70;;
61336;SDS011;47212;41.326;2.104;2024-01-27T18:45:59;23.63;;;17.88;;
61336;SDS011;47212;41.326;2.104;2024-01-27T18:51:02;20.88;;;15.55;;
61336;SDS011;47212;41.326;2.104;2024-01-27T18:56:08;21.42;;;16.33;;
61336;SDS011;47212;41.326;2.104;2024-01-27T19:01:14;18.55;;;15.20;;
61336;SDS011;47212;41.326;2.104;2024-01-27T19:06:17;18.17;;;14.63;;
61336;SDS011;47212;41.326;2.104;2024-01-27T19:11:23;18.45;;;13.85;;
61336;SDS011;47212;41.326;2.104;2024-01-27T19:16:25;19.45;;;14.90;;
61336;SDS011;47212;41.326;2.104;2024-01-27T19:31:31;13.88;;;9.23;;
61336;SDS011;47212;41.326;2.104;2024-01-27T19:36:35;15.95;;;12.60;;
61336;SDS011;47212;41.326;2.104;2024-01-27T19:41:38;18.75;;;14.15;;
61336;SDS011;47212;41.326;2.104;2024-01-27T19:46:42;18.50;;;13.57;;
61336;SDS011;47212;41.326;2.104;2024-01-27T19:51:46;18.10;;;13.85;;
61336;SDS011;47212;41.326;2.104;2024-01-27T19:56:52;19.15;;;14.45;;
61336;SDS011;47212;41.326;2.104;2024-01-27T20:01:54;23.05;;;15.98;;
61336;SDS011;47212;41.326;2.104;2024-01-27T20:07:00;18.65;;;13.50;;
61336;SDS011;47212;41.326;2.104;2024-01-27T20:12:06;19.15;;;12.85;;
61336;SDS011;47212;41.326;2.104;2024-01-27T20:17:08;22.00;;;14.25;;
61336;SDS011;47212;41.326;2.104;2024-01-27T20:27:13;17.67;;;13.18;;
61336;SDS011;47212;41.326;2.104;2024-01-27T20:32:16;23.55;;;18.15;;
61336;SDS011;47212;41.326;2.104;2024-01-27T20:37:18;24.45;;;18.60;;
61336;SDS011;47212;41.326;2.104;2024-01-27T20:47:22;26.05;;;19.48;;
61336;SDS011;47212;41.326;2.104;2024-01-27T20:52:24;30.83;;;21.45;;
61336;SDS011;47212;41.326;2.104;2024-01-27T21:02:28;24.35;;;18.30;;
61336;SDS011;47212;41.326;2.104;2024-01-27T21:07:30;32.85;;;22.20;;
61336;SDS011;47212;41.326;2.104;2024-01-27T21:12:33;26.60;;;19.98;;
61336;SDS011;47212;41.326;2.104;2024-01-27T21:22:37;23.27;;;16.42;;
61336;SDS011;47212;41.326;2.104;2024-01-27T21:27:39;29.80;;;20.80;;
61336;SDS011;47212;41.326;2.104;2024-01-27T21:32:43;46.60;;;29.58;;
61336;SDS011;47212;41.326;2.104;2024-01-27T21:37:45;61.58;;;37.13;;
61336;SDS011;47212;41.326;2.104;2024-01-27T21:47:52;43.45;;;26.40;;
61336;SDS011;47212;41.326;2.104;2024-01-27T21:52:55;35.83;;;24.80;;
61336;SDS011;47212;41.326;2.104;2024-01-27T22:02:59;29.67;;;19.00;;
61336;SDS011;47212;41.326;2.104;2024-01-27T22:13:05;32.72;;;21.30;;
61336;SDS011;47212;41.326;2.104;2024-01-27T22:18:09;32.35;;;20.38;;
61336;SDS011;47212;41.326;2.104;2024-01-27T22:23:14;31.80;;;19.08;;
61336;SDS011;47212;41.326;2.104;2024-01-27T22:28:16;26.45;;;18.50;;
61336;SDS011;47212;41.326;2.104;2024-01-27T22:33:19;26.42;;;17.98;;
61336;SDS011;47212;41.326;2.104;2024-01-27T22:38:22;26.88;;;19.45;;
61336;SDS011;47212;41.326;2.104;2024-01-27T22:43:41;26.50;;;17.98;;
61336;SDS011;47212;41.326;2.104;2024-01-27T22:48:54;24.30;;;17.02;;
61336;SDS011;47212;41.326;2.104;2024-01-27T22:54:05;22.92;;;17.33;;
61336;SDS011;47212;41.326;2.104;2024-01-27T22:59:08;30.63;;;18.88;;
61336;SDS011;47212;41.326;2.104;2024-01-27T23:04:10;27.90;;;19.08;;
61336;SDS011;47212;41.326;2.104;2024-01-27T23:09:20;26.73;;;19.42;;
61336;SDS011;47212;41.326;2.104;2024-01-27T23:14:32;27.20;;;19.13;;
61336;SDS011;47212;41.326;2.104;2024-01-27T23:19:34;28.38;;;19.42;;
61336;SDS011;47212;41.326;2.104;2024-01-27T23:24:36;30.98;;;20.42;;
61336;SDS011;47212;41.326;2.104;2024-01-27T23:29:39;25.15;;;19.45;;
61336;SDS011;47212;41.326;2.104;2024-01-27T23:35:08;30.77;;;19.92;;
61336;SDS011;47212;41.326;2.104;2024-01-27T23:40:11;30.23;;;19.65;;
61336;SDS011;47212;41.326;2.104;2024-01-27T23:45:13;25.60;;;18.55;;
61336;SDS011;47212;41.326;2.104;2024-01-27T23:50:17;26.58;;;19.20;;
61336;SDS011;47212;41.326;2.104;2024-01-27T23:55:28;30.42;;;20.45;;
